sensor_id;sensor_type;location;lat;lon;timestamp;temperature;humidity
2783;DHT22;1399;47.072;15.452;2022-12-18T00:01:36;6.00;49.50
2783;DHT22;1399;47.072;15.452;2022-12-18T00:04:04;5.90;49.50
2783;DHT22;1399;47.072;15.452;2022-12-18T00:06:31;5.90;49.30
2783;DHT22;1399;47.072;15.452;2022-12-18T00:08:59;5.90;49.30
2783;DHT22;1399;47.072;15.452;2022-12-18T00:11:28;5.90;49.30
2783;DHT22;1399;47.072;15.452;2022-12-18T00:13:55;5.90;49.20
2783;DHT22;1399;47.072;15.452;2022-12-18T00:16:24;5.90;49.20
2783;DHT22;1399;47.072;15.452;2022-12-18T00:18:53;5.90;49.10
2783;DHT22;1399;47.072;15.452;2022-12-18T00:21:20;5.90;49.10
2783;DHT22;1399;47.072;15.452;2022-12-18T00:23:47;5.90;49.10
2783;DHT22;1399;47.072;15.452;2022-12-18T00:26:16;5.90;49.00
2783;DHT22;1399;47.072;15.452;2022-12-18T00:28:44;5.90;49.00
2783;DHT22;1399;47.072;15.452;2022-12-18T00:31:14;5.80;48.80
2783;DHT22;1399;47.072;15.452;2022-12-18T00:33:41;5.80;48.80
2783;DHT22;1399;47.072;15.452;2022-12-18T00:36:12;5.80;48.70
2783;DHT22;1399;47.072;15.452;2022-12-18T00:38:39;5.80;48.70
2783;DHT22;1399;47.072;15.452;2022-12-18T00:41:06;5.80;48.60
2783;DHT22;1399;47.072;15.452;2022-12-18T00:43:32;5.80;48.60
2783;DHT22;1399;47.072;15.452;2022-12-18T00:45:58;5.80;48.50
2783;DHT22;1399;47.072;15.452;2022-12-18T00:48:24;5.70;48.30
2783;DHT22;1399;47.072;15.452;2022-12-18T00:50:50;5.70;48.20
2783;DHT22;1399;47.072;15.452;2022-12-18T00:53:17;5.70;48.10
2783;DHT22;1399;47.072;15.452;2022-12-18T00:55:43;5.60;48.00
2783;DHT22;1399;47.072;15.452;2022-12-18T00:58:10;5.60;47.80
2783;DHT22;1399;47.072;15.452;2022-12-18T01:00:36;5.60;47.80
2783;DHT22;1399;47.072;15.452;2022-12-18T01:03:04;5.60;47.80
2783;DHT22;1399;47.072;15.452;2022-12-18T01:05:30;5.60;47.80
2783;DHT22;1399;47.072;15.452;2022-12-18T01:07:56;5.50;47.70
2783;DHT22;1399;47.072;15.452;2022-12-18T01:10:23;5.50;47.70
2783;DHT22;1399;47.072;15.452;2022-12-18T01:12:49;5.50;47.70
2783;DHT22;1399;47.072;15.452;2022-12-18T01:15:16;5.50;47.70
2783;DHT22;1399;47.072;15.452;2022-12-18T01:17:42;5.50;47.60
2783;DHT22;1399;47.072;15.452;2022-12-18T01:20:09;5.40;47.50
2783;DHT22;1399;47.072;15.452;2022-12-18T01:22:36;5.40;47.40
2783;DHT22;1399;47.072;15.452;2022-12-18T01:25:02;5.40;47.50
2783;DHT22;1399;47.072;15.452;2022-12-18T01:27:29;5.40;47.40
2783;DHT22;1399;47.072;15.452;2022-12-18T01:29:55;5.40;47.40
2783;DHT22;1399;47.072;15.452;2022-12-18T01:32:21;5.40;47.40
2783;DHT22;1399;47.072;15.452;2022-12-18T01:34:47;5.30;47.40
2783;DHT22;1399;47.072;15.452;2022-12-18T01:37:13;5.30;47.30
2783;DHT22;1399;47.072;15.452;2022-12-18T01:39:39;5.40;47.30
2783;DHT22;1399;47.072;15.452;2022-12-18T01:42:13;5.40;47.20
2783;DHT22;1399;47.072;15.452;2022-12-18T01:47:38;5.30;47.10
2783;DHT22;1399;47.072;15.452;2022-12-18T01:52:59;5.30;47.10
2783;DHT22;1399;47.072;15.452;2022-12-18T01:55:30;5.30;47.10
2783;DHT22;1399;47.072;15.452;2022-12-18T01:57:58;5.30;47.00
2783;DHT22;1399;47.072;15.452;2022-12-18T02:00:26;5.30;47.10
2783;DHT22;1399;47.072;15.452;2022-12-18T02:02:52;5.30;47.10
2783;DHT22;1399;47.072;15.452;2022-12-18T02:08:27;5.30;47.00
2783;DHT22;1399;47.072;15.452;2022-12-18T02:16:45;5.30;46.80
2783;DHT22;1399;47.072;15.452;2022-12-18T02:22:24;5.30;46.70
2783;DHT22;1399;47.072;15.452;2022-12-18T02:27:59;5.20;46.50
2783;DHT22;1399;47.072;15.452;2022-12-18T02:30:28;5.20;46.60
2783;DHT22;1399;47.072;15.452;2022-12-18T02:32:56;5.20;46.60
2783;DHT22;1399;47.072;15.452;2022-12-18T02:35:28;5.20;46.60
2783;DHT22;1399;47.072;15.452;2022-12-18T02:37:55;5.20;46.40
2783;DHT22;1399;47.072;15.452;2022-12-18T02:40:24;5.20;46.40
2783;DHT22;1399;47.072;15.452;2022-12-18T02:42:50;5.10;46.40
2783;DHT22;1399;47.072;15.452;2022-12-18T02:45:16;5.10;46.40
2783;DHT22;1399;47.072;15.452;2022-12-18T02:47:44;5.10;46.40
2783;DHT22;1399;47.072;15.452;2022-12-18T02:50:34;5.10;46.40
2783;DHT22;1399;47.072;15.452;2022-12-18T02:53:21;5.10;46.40
2783;DHT22;1399;47.072;15.452;2022-12-18T03:01:24;5.10;46.30
2783;DHT22;1399;47.072;15.452;2022-12-18T03:03:57;5.10;46.30
2783;DHT22;1399;47.072;15.452;2022-12-18T03:06:32;5.10;46.30
2783;DHT22;1399;47.072;15.452;2022-12-18T03:09:06;5.10;46.20
2783;DHT22;1399;47.072;15.452;2022-12-18T03:11:36;5.10;46.10
2783;DHT22;1399;47.072;15.452;2022-12-18T03:14:23;5.10;46.00
2783;DHT22;1399;47.072;15.452;2022-12-18T03:16:54;5.10;45.90
2783;DHT22;1399;47.072;15.452;2022-12-18T03:19:23;5.00;45.80
2783;DHT22;1399;47.072;15.452;2022-12-18T03:21:54;5.00;45.80
2783;DHT22;1399;47.072;15.452;2022-12-18T03:24:22;5.00;45.70
2783;DHT22;1399;47.072;15.452;2022-12-18T03:26:52;5.00;45.70
2783;DHT22;1399;47.072;15.452;2022-12-18T03:29:25;5.00;45.70
2783;DHT22;1399;47.072;15.452;2022-12-18T03:32:04;5.00;45.70
2783;DHT22;1399;47.072;15.452;2022-12-18T03:34:34;5.00;45.70
2783;DHT22;1399;47.072;15.452;2022-12-18T03:37:02;5.00;45.70
2783;DHT22;1399;47.072;15.452;2022-12-18T03:39:28;5.00;45.70
2783;DHT22;1399;47.072;15.452;2022-12-18T03:42:15;5.00;45.70
2783;DHT22;1399;47.072;15.452;2022-12-18T03:50:57;4.90;45.40
2783;DHT22;1399;47.072;15.452;2022-12-18T03:55:52;4.90;45.30
2783;DHT22;1399;47.072;15.452;2022-12-18T03:58:23;4.90;45.30
2783;DHT22;1399;47.072;15.452;2022-12-18T04:00:52;4.80;45.20
2783;DHT22;1399;47.072;15.452;2022-12-18T04:03:20;4.80;45.20
2783;DHT22;1399;47.072;15.452;2022-12-18T04:05:48;4.80;45.20
2783;DHT22;1399;47.072;15.452;2022-12-18T04:08:16;4.80;45.20
2783;DHT22;1399;47.072;15.452;2022-12-18T04:10:41;4.80;45.20
2783;DHT22;1399;47.072;15.452;2022-12-18T04:13:08;4.80;45.20
2783;DHT22;1399;47.072;15.452;2022-12-18T04:15:35;4.80;45.20
2783;DHT22;1399;47.072;15.452;2022-12-18T04:18:02;4.80;45.20
2783;DHT22;1399;47.072;15.452;2022-12-18T04:20:29;4.80;45.10
2783;DHT22;1399;47.072;15.452;2022-12-18T04:22:54;4.80;45.10
2783;DHT22;1399;47.072;15.452;2022-12-18T04:25:20;4.80;45.10
2783;DHT22;1399;47.072;15.452;2022-12-18T04:27:46;4.80;45.10
2783;DHT22;1399;47.072;15.452;2022-12-18T04:30:12;4.80;45.20
2783;DHT22;1399;47.072;15.452;2022-12-18T04:32:37;4.80;45.20
2783;DHT22;1399;47.072;15.452;2022-12-18T04:35:03;4.80;45.10
2783;DHT22;1399;47.072;15.452;2022-12-18T04:37:32;4.80;45.10
2783;DHT22;1399;47.072;15.452;2022-12-18T04:39:58;4.80;45.10
2783;DHT22;1399;47.072;15.452;2022-12-18T04:42:23;4.80;45.10
2783;DHT22;1399;47.072;15.452;2022-12-18T04:44:49;4.80;45.10
2783;DHT22;1399;47.072;15.452;2022-12-18T04:47:15;4.80;45.10
2783;DHT22;1399;47.072;15.452;2022-12-18T04:49:40;4.80;45.10
2783;DHT22;1399;47.072;15.452;2022-12-18T04:52:06;4.80;45.20
2783;DHT22;1399;47.072;15.452;2022-12-18T04:54:32;4.80;45.20
2783;DHT22;1399;47.072;15.452;2022-12-18T04:56:58;4.70;45.10
2783;DHT22;1399;47.072;15.452;2022-12-18T04:59:24;4.70;45.10
2783;DHT22;1399;47.072;15.452;2022-12-18T05:01:49;4.80;45.10
2783;DHT22;1399;47.072;15.452;2022-12-18T05:04:15;4.70;44.90
2783;DHT22;1399;47.072;15.452;2022-12-18T05:06:41;4.70;45.00
2783;DHT22;1399;47.072;15.452;2022-12-18T05:09:07;4.70;45.00
2783;DHT22;1399;47.072;15.452;2022-12-18T05:11:36;4.70;45.00
2783;DHT22;1399;47.072;15.452;2022-12-18T05:14:02;4.70;44.90
2783;DHT22;1399;47.072;15.452;2022-12-18T05:16:28;4.70;44.80
2783;DHT22;1399;47.072;15.452;2022-12-18T05:18:53;4.70;44.90
2783;DHT22;1399;47.072;15.452;2022-12-18T05:21:19;4.70;44.80
2783;DHT22;1399;47.072;15.452;2022-12-18T05:23:45;4.70;44.80
2783;DHT22;1399;47.072;15.452;2022-12-18T05:26:16;4.70;44.80
2783;DHT22;1399;47.072;15.452;2022-12-18T05:28:42;4.70;44.80
2783;DHT22;1399;47.072;15.452;2022-12-18T05:31:10;4.70;44.80
2783;DHT22;1399;47.072;15.452;2022-12-18T05:33:36;4.70;44.80
2783;DHT22;1399;47.072;15.452;2022-12-18T05:36:04;4.70;44.80
2783;DHT22;1399;47.072;15.452;2022-12-18T05:38:32;4.70;44.80
2783;DHT22;1399;47.072;15.452;2022-12-18T05:40:58;4.70;44.80
2783;DHT22;1399;47.072;15.452;2022-12-18T05:43:25;4.70;44.60
2783;DHT22;1399;47.072;15.452;2022-12-18T05:45:52;4.70;44.60
2783;DHT22;1399;47.072;15.452;2022-12-18T05:48:19;4.70;44.60
2783;DHT22;1399;47.072;15.452;2022-12-18T05:50:46;4.70;44.70
2783;DHT22;1399;47.072;15.452;2022-12-18T05:53:14;4.70;44.70
2783;DHT22;1399;47.072;15.452;2022-12-18T05:55:41;4.70;44.60
2783;DHT22;1399;47.072;15.452;2022-12-18T05:58:08;4.70;44.60
2783;DHT22;1399;47.072;15.452;2022-12-18T06:00:37;4.70;44.50
2783;DHT22;1399;47.072;15.452;2022-12-18T06:03:07;4.60;44.50
2783;DHT22;1399;47.072;15.452;2022-12-18T06:05:41;4.70;44.50
2783;DHT22;1399;47.072;15.452;2022-12-18T06:08:07;4.60;44.30
2783;DHT22;1399;47.072;15.452;2022-12-18T06:10:33;4.60;44.30
2783;DHT22;1399;47.072;15.452;2022-12-18T06:13:00;4.60;44.30
2783;DHT22;1399;47.072;15.452;2022-12-18T06:15:26;4.60;44.40
2783;DHT22;1399;47.072;15.452;2022-12-18T06:17:51;4.60;44.40
2783;DHT22;1399;47.072;15.452;2022-12-18T06:20:17;4.60;44.40
2783;DHT22;1399;47.072;15.452;2022-12-18T06:22:43;4.60;44.40
2783;DHT22;1399;47.072;15.452;2022-12-18T06:25:09;4.60;44.40
2783;DHT22;1399;47.072;15.452;2022-12-18T06:27:34;4.70;44.50
2783;DHT22;1399;47.072;15.452;2022-12-18T06:30:00;4.70;44.40
2783;DHT22;1399;47.072;15.452;2022-12-18T06:32:26;4.70;44.20
2783;DHT22;1399;47.072;15.452;2022-12-18T06:34:52;4.70;44.20
2783;DHT22;1399;47.072;15.452;2022-12-18T06:37:19;4.70;44.20
2783;DHT22;1399;47.072;15.452;2022-12-18T06:39:45;4.70;44.20
2783;DHT22;1399;47.072;15.452;2022-12-18T06:42:10;4.70;44.10
2783;DHT22;1399;47.072;15.452;2022-12-18T06:44:36;4.70;44.00
2783;DHT22;1399;47.072;15.452;2022-12-18T06:47:02;4.70;43.90
2783;DHT22;1399;47.072;15.452;2022-12-18T06:49:27;4.80;44.00
2783;DHT22;1399;47.072;15.452;2022-12-18T06:51:53;4.80;44.00
2783;DHT22;1399;47.072;15.452;2022-12-18T06:54:19;4.80;43.90
2783;DHT22;1399;47.072;15.452;2022-12-18T06:56:45;4.80;43.80
2783;DHT22;1399;47.072;15.452;2022-12-18T06:59:13;4.80;43.80
2783;DHT22;1399;47.072;15.452;2022-12-18T07:01:40;4.80;43.80
2783;DHT22;1399;47.072;15.452;2022-12-18T07:04:05;4.90;43.80
2783;DHT22;1399;47.072;15.452;2022-12-18T07:06:31;4.90;43.90
2783;DHT22;1399;47.072;15.452;2022-12-18T07:08:57;4.90;43.80
2783;DHT22;1399;47.072;15.452;2022-12-18T07:11:23;4.90;43.70
2783;DHT22;1399;47.072;15.452;2022-12-18T07:13:49;4.90;43.70
2783;DHT22;1399;47.072;15.452;2022-12-18T07:16:17;4.90;43.70
2783;DHT22;1399;47.072;15.452;2022-12-18T07:18:43;5.00;43.70
2783;DHT22;1399;47.072;15.452;2022-12-18T07:21:11;5.00;43.70
2783;DHT22;1399;47.072;15.452;2022-12-18T07:23:38;5.00;43.80
2783;DHT22;1399;47.072;15.452;2022-12-18T07:26:05;5.00;43.80
2783;DHT22;1399;47.072;15.452;2022-12-18T07:28:33;5.00;43.80
2783;DHT22;1399;47.072;15.452;2022-12-18T07:31:05;5.10;43.90
2783;DHT22;1399;47.072;15.452;2022-12-18T07:33:32;5.10;43.90
2783;DHT22;1399;47.072;15.452;2022-12-18T07:36:02;5.10;44.00
2783;DHT22;1399;47.072;15.452;2022-12-18T07:38:30;5.20;44.00
2783;DHT22;1399;47.072;15.452;2022-12-18T07:41:01;5.10;44.00
2783;DHT22;1399;47.072;15.452;2022-12-18T07:43:27;5.20;44.00
2783;DHT22;1399;47.072;15.452;2022-12-18T07:45:53;5.20;44.00
2783;DHT22;1399;47.072;15.452;2022-12-18T07:48:18;5.30;44.10
2783;DHT22;1399;47.072;15.452;2022-12-18T07:50:44;5.30;44.10
2783;DHT22;1399;47.072;15.452;2022-12-18T07:53:10;5.30;44.20
2783;DHT22;1399;47.072;15.452;2022-12-18T07:55:35;5.30;44.10
2783;DHT22;1399;47.072;15.452;2022-12-18T07:58:02;5.40;44.20
2783;DHT22;1399;47.072;15.452;2022-12-18T08:00:28;5.40;44.20
2783;DHT22;1399;47.072;15.452;2022-12-18T08:02:54;5.50;44.30
2783;DHT22;1399;47.072;15.452;2022-12-18T08:05:20;5.50;44.30
2783;DHT22;1399;47.072;15.452;2022-12-18T08:07:46;5.50;44.30
2783;DHT22;1399;47.072;15.452;2022-12-18T08:10:12;5.60;44.40
2783;DHT22;1399;47.072;15.452;2022-12-18T08:12:38;5.60;44.40
2783;DHT22;1399;47.072;15.452;2022-12-18T08:15:04;5.70;44.30
2783;DHT22;1399;47.072;15.452;2022-12-18T08:17:30;5.70;44.20
2783;DHT22;1399;47.072;15.452;2022-12-18T08:19:55;5.70;44.00
2783;DHT22;1399;47.072;15.452;2022-12-18T08:22:21;5.70;44.00
2783;DHT22;1399;47.072;15.452;2022-12-18T08:24:47;5.80;44.00
2783;DHT22;1399;47.072;15.452;2022-12-18T08:27:13;5.80;43.90
2783;DHT22;1399;47.072;15.452;2022-12-18T08:29:38;5.90;43.80
2783;DHT22;1399;47.072;15.452;2022-12-18T08:32:04;5.90;43.70
2783;DHT22;1399;47.072;15.452;2022-12-18T08:34:30;6.00;43.60
2783;DHT22;1399;47.072;15.452;2022-12-18T08:36:56;6.00;43.60
2783;DHT22;1399;47.072;15.452;2022-12-18T08:39:21;6.00;43.60
2783;DHT22;1399;47.072;15.452;2022-12-18T08:41:47;6.00;43.70
2783;DHT22;1399;47.072;15.452;2022-12-18T08:44:33;6.00;43.70
2783;DHT22;1399;47.072;15.452;2022-12-18T08:47:06;6.00;43.60
2783;DHT22;1399;47.072;15.452;2022-12-18T08:49:33;6.00;43.50
2783;DHT22;1399;47.072;15.452;2022-12-18T08:51:59;6.00;43.60
2783;DHT22;1399;47.072;15.452;2022-12-18T08:54:25;6.00;43.30
2783;DHT22;1399;47.072;15.452;2022-12-18T08:56:52;6.00;43.40
2783;DHT22;1399;47.072;15.452;2022-12-18T08:59:19;6.00;43.40
2783;DHT22;1399;47.072;15.452;2022-12-18T09:01:45;6.00;43.30
2783;DHT22;1399;47.072;15.452;2022-12-18T09:04:11;6.00;43.20
2783;DHT22;1399;47.072;15.452;2022-12-18T09:06:38;6.00;43.10
2783;DHT22;1399;47.072;15.452;2022-12-18T09:09:04;6.00;43.10
2783;DHT22;1399;47.072;15.452;2022-12-18T09:11:31;6.00;43.20
2783;DHT22;1399;47.072;15.452;2022-12-18T09:13:59;6.00;43.20
2783;DHT22;1399;47.072;15.452;2022-12-18T09:16:26;6.00;43.20
2783;DHT22;1399;47.072;15.452;2022-12-18T09:18:56;6.00;43.20
2783;DHT22;1399;47.072;15.452;2022-12-18T09:21:26;6.00;43.20
2783;DHT22;1399;47.072;15.452;2022-12-18T09:23:54;6.10;43.20
2783;DHT22;1399;47.072;15.452;2022-12-18T09:26:21;6.00;43.10
2783;DHT22;1399;47.072;15.452;2022-12-18T09:28:48;6.10;43.10
2783;DHT22;1399;47.072;15.452;2022-12-18T09:31:17;6.10;43.10
2783;DHT22;1399;47.072;15.452;2022-12-18T09:33:43;6.10;43.20
2783;DHT22;1399;47.072;15.452;2022-12-18T09:36:13;6.10;43.20
2783;DHT22;1399;47.072;15.452;2022-12-18T09:38:39;6.10;43.30
2783;DHT22;1399;47.072;15.452;2022-12-18T09:43:51;6.10;43.60
2783;DHT22;1399;47.072;15.452;2022-12-18T09:46:39;6.20;43.80
2783;DHT22;1399;47.072;15.452;2022-12-18T09:49:14;6.20;43.90
2783;DHT22;1399;47.072;15.452;2022-12-18T09:51:52;6.20;44.10
2783;DHT22;1399;47.072;15.452;2022-12-18T09:54:28;6.20;44.20
2783;DHT22;1399;47.072;15.452;2022-12-18T09:56:56;6.30;44.50
2783;DHT22;1399;47.072;15.452;2022-12-18T09:59:37;6.30;44.50
2783;DHT22;1399;47.072;15.452;2022-12-18T10:02:18;6.30;44.50
2783;DHT22;1399;47.072;15.452;2022-12-18T10:04:53;6.30;44.50
2783;DHT22;1399;47.072;15.452;2022-12-18T10:13:03;6.50;45.00
2783;DHT22;1399;47.072;15.452;2022-12-18T10:15:45;6.50;45.20
2783;DHT22;1399;47.072;15.452;2022-12-18T10:21:00;6.60;45.20
2783;DHT22;1399;47.072;15.452;2022-12-18T10:23:37;6.70;45.40
2783;DHT22;1399;47.072;15.452;2022-12-18T10:26:11;6.70;45.50
2783;DHT22;1399;47.072;15.452;2022-12-18T10:28:40;6.80;45.70
2783;DHT22;1399;47.072;15.452;2022-12-18T10:31:07;6.90;45.60
2783;DHT22;1399;47.072;15.452;2022-12-18T10:33:38;6.90;45.40
2783;DHT22;1399;47.072;15.452;2022-12-18T10:36:04;6.90;45.50
2783;DHT22;1399;47.072;15.452;2022-12-18T10:38:32;7.00;45.40
2783;DHT22;1399;47.072;15.452;2022-12-18T10:41:01;7.00;45.20
2783;DHT22;1399;47.072;15.452;2022-12-18T10:51:07;7.10;45.40
2783;DHT22;1399;47.072;15.452;2022-12-18T10:53:36;7.10;46.00
2783;DHT22;1399;47.072;15.452;2022-12-18T10:56:04;7.10;45.50
2783;DHT22;1399;47.072;15.452;2022-12-18T11:01:11;7.20;45.20
2783;DHT22;1399;47.072;15.452;2022-12-18T11:06:19;7.20;45.70
2783;DHT22;1399;47.072;15.452;2022-12-18T11:11:27;7.30;45.70
2783;DHT22;1399;47.072;15.452;2022-12-18T11:14:15;7.30;45.70
2783;DHT22;1399;47.072;15.452;2022-12-18T11:16:45;7.30;45.70
2783;DHT22;1399;47.072;15.452;2022-12-18T11:21:46;7.30;45.70
2783;DHT22;1399;47.072;15.452;2022-12-18T11:26:47;7.30;45.50
2783;DHT22;1399;47.072;15.452;2022-12-18T11:29:22;7.30;45.50
2783;DHT22;1399;47.072;15.452;2022-12-18T11:31:49;7.40;45.50
2783;DHT22;1399;47.072;15.452;2022-12-18T11:34:30;7.40;45.60
2783;DHT22;1399;47.072;15.452;2022-12-18T11:36:58;7.40;45.70
2783;DHT22;1399;47.072;15.452;2022-12-18T11:39:44;7.40;45.90
2783;DHT22;1399;47.072;15.452;2022-12-18T11:42:22;7.40;45.70
2783;DHT22;1399;47.072;15.452;2022-12-18T11:45:00;7.40;45.60
2783;DHT22;1399;47.072;15.452;2022-12-18T11:50:17;7.40;46.40
2783;DHT22;1399;47.072;15.452;2022-12-18T11:52:44;7.40;45.70
2783;DHT22;1399;47.072;15.452;2022-12-18T11:55:12;7.40;45.70
2783;DHT22;1399;47.072;15.452;2022-12-18T12:00:19;7.40;45.80
2783;DHT22;1399;47.072;15.452;2022-12-18T12:14:09;7.30;46.80
2783;DHT22;1399;47.072;15.452;2022-12-18T12:16:43;7.30;46.80
2783;DHT22;1399;47.072;15.452;2022-12-18T12:38:42;7.30;46.40
2783;DHT22;1399;47.072;15.452;2022-12-18T12:41:14;7.30;46.30
2783;DHT22;1399;47.072;15.452;2022-12-18T12:44:04;7.30;46.40
2783;DHT22;1399;47.072;15.452;2022-12-18T12:46:34;7.20;46.30
2783;DHT22;1399;47.072;15.452;2022-12-18T12:49:02;7.20;46.40
2783;DHT22;1399;47.072;15.452;2022-12-18T12:51:37;7.20;46.40
2783;DHT22;1399;47.072;15.452;2022-12-18T12:54:12;7.20;46.50
2783;DHT22;1399;47.072;15.452;2022-12-18T12:57:16;7.20;46.50
2783;DHT22;1399;47.072;15.452;2022-12-18T13:00:04;7.20;46.60
2783;DHT22;1399;47.072;15.452;2022-12-18T13:05:31;7.10;46.60
2783;DHT22;1399;47.072;15.452;2022-12-18T13:08:10;7.10;46.80
2783;DHT22;1399;47.072;15.452;2022-12-18T13:10:41;7.10;46.90
2783;DHT22;1399;47.072;15.452;2022-12-18T13:13:14;7.10;47.50
2783;DHT22;1399;47.072;15.452;2022-12-18T13:18:21;7.10;46.80
2783;DHT22;1399;47.072;15.452;2022-12-18T13:23:27;7.10;46.80
2783;DHT22;1399;47.072;15.452;2022-12-18T13:34:18;7.00;47.50
2783;DHT22;1399;47.072;15.452;2022-12-18T13:36:44;7.00;46.90
2783;DHT22;1399;47.072;15.452;2022-12-18T13:41:49;7.00;47.10
2783;DHT22;1399;47.072;15.452;2022-12-18T13:46:59;6.90;47.20
2783;DHT22;1399;47.072;15.452;2022-12-18T13:49:43;6.90;47.30
2783;DHT22;1399;47.072;15.452;2022-12-18T13:52:27;6.90;47.40
2783;DHT22;1399;47.072;15.452;2022-12-18T13:54:56;6.90;47.40
2783;DHT22;1399;47.072;15.452;2022-12-18T13:57:35;6.90;47.50
2783;DHT22;1399;47.072;15.452;2022-12-18T14:02:48;6.90;47.60
2783;DHT22;1399;47.072;15.452;2022-12-18T14:05:35;6.90;47.80
2783;DHT22;1399;47.072;15.452;2022-12-18T14:08:05;6.90;47.90
2783;DHT22;1399;47.072;15.452;2022-12-18T14:10:32;6.90;47.80
2783;DHT22;1399;47.072;15.452;2022-12-18T14:13:03;6.90;47.80
2783;DHT22;1399;47.072;15.452;2022-12-18T14:15:41;6.90;47.90
2783;DHT22;1399;47.072;15.452;2022-12-18T14:21:02;6.80;47.90
2783;DHT22;1399;47.072;15.452;2022-12-18T14:25:59;6.80;47.90
2783;DHT22;1399;47.072;15.452;2022-12-18T14:28:26;6.80;48.00
2783;DHT22;1399;47.072;15.452;2022-12-18T14:30:52;6.80;48.10
2783;DHT22;1399;47.072;15.452;2022-12-18T14:33:22;6.80;48.10
2783;DHT22;1399;47.072;15.452;2022-12-18T14:35:59;6.80;48.20
2783;DHT22;1399;47.072;15.452;2022-12-18T14:38:27;6.80;48.30
2783;DHT22;1399;47.072;15.452;2022-12-18T14:41:19;6.80;48.30
2783;DHT22;1399;47.072;15.452;2022-12-18T14:43:47;6.80;48.40
2783;DHT22;1399;47.072;15.452;2022-12-18T14:46:29;6.80;48.50
2783;DHT22;1399;47.072;15.452;2022-12-18T14:48:56;6.80;48.40
2783;DHT22;1399;47.072;15.452;2022-12-18T14:51:27;6.80;48.60
2783;DHT22;1399;47.072;15.452;2022-12-18T14:54:05;6.80;48.60
2783;DHT22;1399;47.072;15.452;2022-12-18T14:56:37;6.80;48.60
2783;DHT22;1399;47.072;15.452;2022-12-18T14:59:17;6.70;48.50
2783;DHT22;1399;47.072;15.452;2022-12-18T15:02:00;6.70;48.50
2783;DHT22;1399;47.072;15.452;2022-12-18T15:04:35;6.70;49.10
2783;DHT22;1399;47.072;15.452;2022-12-18T15:07:22;6.70;48.50
2783;DHT22;1399;47.072;15.452;2022-12-18T15:12:36;6.70;48.50
2783;DHT22;1399;47.072;15.452;2022-12-18T15:15:04;6.70;48.60
2783;DHT22;1399;47.072;15.452;2022-12-18T15:17:31;6.70;48.60
2783;DHT22;1399;47.072;15.452;2022-12-18T15:20:08;6.70;48.60
2783;DHT22;1399;47.072;15.452;2022-12-18T15:22:36;6.70;48.50
2783;DHT22;1399;47.072;15.452;2022-12-18T15:25:16;6.70;48.60
2783;DHT22;1399;47.072;15.452;2022-12-18T15:27:49;6.70;48.50
2783;DHT22;1399;47.072;15.452;2022-12-18T15:30:19;6.70;48.70
2783;DHT22;1399;47.072;15.452;2022-12-18T15:32:46;6.70;48.90
2783;DHT22;1399;47.072;15.452;2022-12-18T15:35:16;6.70;48.90
2783;DHT22;1399;47.072;15.452;2022-12-18T15:37:48;6.70;48.90
2783;DHT22;1399;47.072;15.452;2022-12-18T15:40:20;6.70;48.80
2783;DHT22;1399;47.072;15.452;2022-12-18T15:42:46;6.70;48.80
2783;DHT22;1399;47.072;15.452;2022-12-18T15:45:31;6.70;48.80
2783;DHT22;1399;47.072;15.452;2022-12-18T15:47:57;6.70;48.80
2783;DHT22;1399;47.072;15.452;2022-12-18T15:50:23;6.70;48.80
2783;DHT22;1399;47.072;15.452;2022-12-18T15:52:52;6.70;48.80
2783;DHT22;1399;47.072;15.452;2022-12-18T15:55:21;6.70;48.80
2783;DHT22;1399;47.072;15.452;2022-12-18T15:58:07;6.60;48.70
2783;DHT22;1399;47.072;15.452;2022-12-18T16:00:35;6.60;48.80
2783;DHT22;1399;47.072;15.452;2022-12-18T16:03:03;6.60;48.80
2783;DHT22;1399;47.072;15.452;2022-12-18T16:05:31;6.60;48.80
2783;DHT22;1399;47.072;15.452;2022-12-18T16:07:57;6.60;48.80
2783;DHT22;1399;47.072;15.452;2022-12-18T16:10:25;6.60;48.80
2783;DHT22;1399;47.072;15.452;2022-12-18T16:12:52;6.60;48.80
2783;DHT22;1399;47.072;15.452;2022-12-18T16:15:18;6.60;48.80
2783;DHT22;1399;47.072;15.452;2022-12-18T16:17:45;6.60;48.70
2783;DHT22;1399;47.072;15.452;2022-12-18T16:20:15;6.60;48.70
2783;DHT22;1399;47.072;15.452;2022-12-18T16:22:45;6.60;48.70
2783;DHT22;1399;47.072;15.452;2022-12-18T16:27:48;6.60;48.80
2783;DHT22;1399;47.072;15.452;2022-12-18T16:30:20;6.60;48.70
2783;DHT22;1399;47.072;15.452;2022-12-18T16:32:46;6.60;48.70
2783;DHT22;1399;47.072;15.452;2022-12-18T16:35:14;6.60;48.70
2783;DHT22;1399;47.072;15.452;2022-12-18T16:37:41;6.60;48.60
2783;DHT22;1399;47.072;15.452;2022-12-18T16:40:10;6.60;48.50
2783;DHT22;1399;47.072;15.452;2022-12-18T16:42:40;6.60;48.50
2783;DHT22;1399;47.072;15.452;2022-12-18T16:45:08;6.60;48.50
2783;DHT22;1399;47.072;15.452;2022-12-18T16:47:35;6.60;48.40
2783;DHT22;1399;47.072;15.452;2022-12-18T16:50:01;6.60;48.40
2783;DHT22;1399;47.072;15.452;2022-12-18T16:52:28;6.50;48.30
2783;DHT22;1399;47.072;15.452;2022-12-18T16:54:55;6.60;48.40
2783;DHT22;1399;47.072;15.452;2022-12-18T16:57:23;6.60;48.40
2783;DHT22;1399;47.072;15.452;2022-12-18T16:59:49;6.50;48.30
2783;DHT22;1399;47.072;15.452;2022-12-18T17:02:22;6.60;48.40
2783;DHT22;1399;47.072;15.452;2022-12-18T17:04:51;6.50;48.30
2783;DHT22;1399;47.072;15.452;2022-12-18T17:07:18;6.60;48.40
2783;DHT22;1399;47.072;15.452;2022-12-18T17:09:44;6.50;48.30
2783;DHT22;1399;47.072;15.452;2022-12-18T17:12:10;6.60;48.40
2783;DHT22;1399;47.072;15.452;2022-12-18T17:14:36;6.60;48.40
2783;DHT22;1399;47.072;15.452;2022-12-18T17:17:03;6.50;48.30
2783;DHT22;1399;47.072;15.452;2022-12-18T17:19:29;6.50;48.30
2783;DHT22;1399;47.072;15.452;2022-12-18T17:21:55;6.50;48.30
2783;DHT22;1399;47.072;15.452;2022-12-18T17:24:22;6.50;48.30
2783;DHT22;1399;47.072;15.452;2022-12-18T17:26:51;6.50;48.30
2783;DHT22;1399;47.072;15.452;2022-12-18T17:29:19;6.50;48.30
2783;DHT22;1399;47.072;15.452;2022-12-18T17:31:46;6.50;48.30
2783;DHT22;1399;47.072;15.452;2022-12-18T17:34:12;6.50;48.30
2783;DHT22;1399;47.072;15.452;2022-12-18T17:36:39;6.50;48.30
2783;DHT22;1399;47.072;15.452;2022-12-18T17:39:06;6.50;48.30
2783;DHT22;1399;47.072;15.452;2022-12-18T17:41:32;6.50;48.30
2783;DHT22;1399;47.072;15.452;2022-12-18T17:44:04;6.50;48.40
2783;DHT22;1399;47.072;15.452;2022-12-18T17:46:32;6.50;48.50
2783;DHT22;1399;47.072;15.452;2022-12-18T17:49:00;6.50;48.50
2783;DHT22;1399;47.072;15.452;2022-12-18T17:51:27;6.50;48.50
2783;DHT22;1399;47.072;15.452;2022-12-18T17:53:55;6.50;48.40
2783;DHT22;1399;47.072;15.452;2022-12-18T17:56:23;6.50;48.40
2783;DHT22;1399;47.072;15.452;2022-12-18T17:58:50;6.50;48.40
2783;DHT22;1399;47.072;15.452;2022-12-18T18:01:19;6.50;48.40
2783;DHT22;1399;47.072;15.452;2022-12-18T18:03:46;6.50;48.40
2783;DHT22;1399;47.072;15.452;2022-12-18T18:06:13;6.50;48.40
2783;DHT22;1399;47.072;15.452;2022-12-18T18:08:40;6.50;48.30
2783;DHT22;1399;47.072;15.452;2022-12-18T18:11:10;6.50;48.30
2783;DHT22;1399;47.072;15.452;2022-12-18T18:13:56;6.60;48.40
2783;DHT22;1399;47.072;15.452;2022-12-18T18:16:55;6.60;48.40
2783;DHT22;1399;47.072;15.452;2022-12-18T18:19:23;6.60;48.40
2783;DHT22;1399;47.072;15.452;2022-12-18T18:21:51;6.50;48.30
2783;DHT22;1399;47.072;15.452;2022-12-18T18:24:22;6.60;48.40
2783;DHT22;1399;47.072;15.452;2022-12-18T18:26:49;6.60;48.40
2783;DHT22;1399;47.072;15.452;2022-12-18T18:29:18;6.60;48.20
2783;DHT22;1399;47.072;15.452;2022-12-18T18:31:45;6.60;48.20
2783;DHT22;1399;47.072;15.452;2022-12-18T18:34:15;6.60;48.10